Time;durP1;ratioP1;P1;durP2;ratioP2;P2;SDS_P1;SDS_P2;PMS_P1;PMS_P2;Temp;Humidity;BMP_temperature;BMP_pressure;BME280_temperature;BME280_humidity;BME280_pressure;Samples;Min_cycle;Max_cycle;Signal;HPM_P1;HPM_P2
2021/08/31 00:02:42;;;;;;;14.32;7.88;;;;;;;;;;6143376;28;20047;-81
2021/08/31 00:05:44;;;;;;;12.30;7.60;;;;;;;;;;6142972;28;20050;-80
2021/08/31 00:08:46;;;;;;;12.98;8.30;;;;;;;;;;6136699;28;20165;-81
2021/08/31 00:11:48;;;;;;;11.93;7.82;;;;;;;;;;6131125;28;20514;-80
2021/08/31 00:14:49;;;;;;;11.77;7.95;;;;;;;;;;6154446;28;20070;-81
2021/08/31 00:17:51;;;;;;;13.73;8.13;;;;;;;;;;6152177;28;20050;-80
2021/08/31 00:20:53;;;;;;;15.30;8.95;;;;;;;;;;6143592;28;20074;-80
2021/08/31 00:23:54;;;;;;;15.35;8.65;;;;;;;;;;6114141;28;20055;-80
2021/08/31 00:26:56;;;;;;;13.02;8.63;;;;;;;;;;6152526;28;20046;-81
2021/08/31 00:29:58;;;;;;;11.57;7.70;;;;;;;;;;6146675;28;20501;-82
2021/08/31 00:32:59;;;;;;;12.00;7.63;;;;;;;;;;6142424;28;20066;-81
2021/08/31 00:36:04;;;;;;;10.93;7.38;;;;;;;;;;6126426;28;20046;-81
2021/08/31 00:39:05;;;;;;;11.95;6.93;;;;;;;;;;6167300;28;20145;-79
2021/08/31 00:42:07;;;;;;;11.95;7.15;;;;;;;;;;6168855;28;20054;-81
2021/08/31 00:45:09;;;;;;;10.73;7.47;;;;;;;;;;6150625;28;20054;-81
2021/08/31 00:48:10;;;;;;;10.52;7.28;;;;;;;;;;6173151;28;20050;-80
2021/08/31 00:51:14;;;;;;;12.10;7.40;;;;;;;;;;6177833;28;20046;-81
2021/08/31 00:54:16;;;;;;;9.77;6.75;;;;;;;;;;6180275;28;20051;-81
2021/08/31 00:57:17;;;;;;;10.25;7.22;;;;;;;;;;6170669;28;20062;-81
2021/08/31 01:00:19;;;;;;;11.43;7.13;;;;;;;;;;6131945;28;20054;-81
2021/08/31 01:03:21;;;;;;;13.60;7.82;;;;;;;;;;6139246;28;20044;-81
2021/08/31 01:06:23;;;;;;;13.27;8.23;;;;;;;;;;6147469;28;20051;-80
2021/08/31 01:09:25;;;;;;;13.73;8.38;;;;;;;;;;6150065;28;20050;-81
2021/08/31 01:12:27;;;;;;;16.97;8.37;;;;;;;;;;6146165;28;20058;-80
2021/08/31 01:15:30;;;;;;;14.02;8.13;;;;;;;;;;6136142;28;20447;-81
2021/08/31 01:18:32;;;;;;;12.88;8.15;;;;;;;;;;6128394;28;20057;-81
2021/08/31 01:21:34;;;;;;;13.20;7.70;;;;;;;;;;6144482;29;20705;-81
2021/08/31 01:24:46;;;;;;;13.68;9.07;;;;;;;;;;6166595;28;20519;-80
2021/08/31 01:27:48;;;;;;;13.57;8.65;;;;;;;;;;6167705;28;20042;-81
2021/08/31 01:30:51;;;;;;;15.48;9.48;;;;;;;;;;6169273;28;20670;-81
2021/08/31 01:33:54;;;;;;;;;;;;;;;;;;6187181;28;20079;-81
2021/08/31 01:36:56;;;;;;;14.75;8.18;;;;;;;;;;6171040;28;19922;-81
2021/08/31 01:39:58;;;;;;;13.48;8.00;;;;;;;;;;6165849;28;20066;-81
2021/08/31 01:43:21;;;;;;;12.63;7.85;;;;;;;;;;6185779;28;20046;-82
2021/08/31 01:46:23;;;;;;;12.93;8.38;;;;;;;;;;6158484;28;20491;-81
2021/08/31 01:49:25;;;;;;;14.43;8.68;;;;;;;;;;6194158;28;20042;-81
2021/08/31 01:52:26;;;;;;;13.85;8.80;;;;;;;;;;6209559;28;20050;-82
2021/08/31 01:55:28;;;;;;;14.60;8.05;;;;;;;;;;6203147;28;20042;-79
2021/08/31 01:58:29;;;;;;;13.38;8.00;;;;;;;;;;6175224;28;20046;-81
2021/08/31 02:01:31;;;;;;;12.60;8.30;;;;;;;;;;6171464;28;20042;-80
2021/08/31 02:04:33;;;;;;;13.95;8.05;;;;;;;;;;6172430;28;20455;-81
2021/08/31 02:07:35;;;;;;;12.85;8.05;;;;;;;;;;6169955;28;20192;-81
2021/08/31 02:10:36;;;;;;;11.73;7.93;;;;;;;;;;6170027;28;20039;-81
2021/08/31 02:13:38;;;;;;;15.13;8.55;;;;;;;;;;6185043;28;20050;-80
2021/08/31 02:16:39;;;;;;;11.95;7.85;;;;;;;;;;6185896;28;20054;-80
2021/08/31 02:19:41;;;;;;;15.13;9.00;;;;;;;;;;6170424;28;20046;-80
2021/08/31 02:22:42;;;;;;;13.18;8.25;;;;;;;;;;6181085;28;20515;-80
2021/08/31 02:25:44;;;;;;;17.33;8.60;;;;;;;;;;6152810;28;20043;-80
2021/08/31 02:28:45;;;;;;;10.98;7.03;;;;;;;;;;6163671;28;20049;-80
2021/08/31 02:31:47;;;;;;;11.80;7.90;;;;;;;;;;6169359;28;20377;-81
2021/08/31 02:34:49;;;;;;;13.77;9.00;;;;;;;;;;6167804;28;20039;-81
2021/08/31 02:37:50;;;;;;;11.60;8.02;;;;;;;;;;6164300;28;20043;-80
2021/08/31 02:40:52;;;;;;;13.38;7.63;;;;;;;;;;6161128;28;20412;-80
2021/08/31 02:43:54;;;;;;;18.20;7.50;;;;;;;;;;6157557;28;20488;-81
2021/08/31 02:46:55;;;;;;;11.45;7.18;;;;;;;;;;6178673;28;20038;-81
2021/08/31 02:49:57;;;;;;;10.95;6.97;;;;;;;;;;6169776;28;20031;-81
2021/08/31 02:52:58;;;;;;;12.15;7.30;;;;;;;;;;6168356;28;20411;-82
2021/08/31 02:56:00;;;;;;;10.85;7.25;;;;;;;;;;6169123;28;20046;-80
2021/08/31 02:59:01;;;;;;;11.30;6.82;;;;;;;;;;6163573;28;20504;-80
2021/08/31 03:02:09;;;;;;;13.18;7.47;;;;;;;;;;6163656;28;20054;-81
2021/08/31 03:05:12;;;;;;;13.73;7.40;;;;;;;;;;6168236;28;20062;-80
2021/08/31 03:08:14;;;;;;;14.70;8.50;;;;;;;;;;6152306;28;20039;-81
2021/08/31 03:11:16;;;;;;;13.13;7.47;;;;;;;;;;6144872;28;20081;-82
2021/08/31 03:14:19;;;;;;;10.63;6.90;;;;;;;;;;6133877;28;20042;-80
2021/08/31 03:17:21;;;;;;;11.15;6.88;;;;;;;;;;6168720;28;20104;-81
2021/08/31 03:20:23;;;;;;;10.13;6.80;;;;;;;;;;6142864;28;20043;-82
2021/08/31 03:23:25;;;;;;;11.30;7.10;;;;;;;;;;6146074;28;20053;-79
2021/08/31 03:26:26;;;;;;;11.35;7.07;;;;;;;;;;6173027;28;20049;-81
2021/08/31 03:29:28;;;;;;;12.32;7.43;;;;;;;;;;6160294;28;20051;-82
2021/08/31 03:32:30;;;;;;;11.10;6.70;;;;;;;;;;6146399;28;20058;-80
2021/08/31 03:35:31;;;;;;;11.38;7.20;;;;;;;;;;6153872;28;20118;-79
2021/08/31 03:38:33;;;;;;;10.48;7.07;;;;;;;;;;6160770;28;20406;-80
2021/08/31 03:41:37;;;;;;;11.65;7.15;;;;;;;;;;6153309;28;20054;-81
2021/08/31 03:44:38;;;;;;;11.85;6.70;;;;;;;;;;6120579;28;20047;-80
2021/08/31 03:47:40;;;;;;;9.38;6.63;;;;;;;;;;6175094;28;20048;-81
2021/08/31 03:50:42;;;;;;;10.80;7.20;;;;;;;;;;6173590;28;20038;-80
2021/08/31 03:53:43;;;;;;;9.45;6.78;;;;;;;;;;6164243;28;20045;-81
2021/08/31 03:56:45;;;;;;;10.98;7.30;;;;;;;;;;6191602;28;20057;-80
2021/08/31 03:59:47;;;;;;;11.02;7.43;;;;;;;;;;6151022;28;20039;-81
2021/08/31 04:02:48;;;;;;;13.57;7.53;;;;;;;;;;6125843;28;20051;-81
2021/08/31 04:05:50;;;;;;;12.25;7.32;;;;;;;;;;6112059;28;20249;-81
2021/08/31 04:08:51;;;;;;;13.65;7.82;;;;;;;;;;6141630;28;20049;-82
2021/08/31 04:11:53;;;;;;;12.55;7.20;;;;;;;;;;6151260;28;20104;-82
2021/08/31 04:14:55;;;;;;;13.20;7.80;;;;;;;;;;6139125;28;20065;-82
2021/08/31 04:17:56;;;;;;;13.40;7.72;;;;;;;;;;6128399;28;20050;-81
2021/08/31 04:20:58;;;;;;;13.82;7.72;;;;;;;;;;6143825;28;20347;-82
2021/08/31 04:24:00;;;;;;;14.35;8.27;;;;;;;;;;6126378;28;20061;-82
2021/08/31 04:27:02;;;;;;;14.93;8.82;;;;;;;;;;6132313;28;20047;-82
2021/08/31 04:30:05;;;;;;;18.58;9.05;;;;;;;;;;6117158;28;20055;-83
2021/08/31 04:33:06;;;;;;;26.50;9.63;;;;;;;;;;6149014;28;20051;-84
2021/08/31 04:36:08;;;;;;;15.63;8.27;;;;;;;;;;6132503;28;20055;-83
2021/08/31 04:39:10;;;;;;;11.23;7.72;;;;;;;;;;6160491;28;20046;-82
2021/08/31 04:42:11;;;;;;;14.60;7.43;;;;;;;;;;6197350;28;20060;-83
2021/08/31 04:45:13;;;;;;;14.15;7.50;;;;;;;;;;6164596;28;20070;-85
2021/08/31 04:48:15;;;;;;;12.05;7.93;;;;;;;;;;6179341;28;20046;-84
2021/08/31 04:51:17;;;;;;;13.82;8.23;;;;;;;;;;6194535;28;20050;-85
2021/08/31 04:54:24;;;;;;;13.88;8.80;;;;;;;;;;6123013;28;20039;-80
2021/08/31 04:57:26;;;;;;;31.35;9.30;;;;;;;;;;6127946;28;20539;-80
2021/08/31 05:00:27;;;;;;;35.97;10.40;;;;;;;;;;6144372;28;20044;-79
2021/08/31 05:03:30;;;;;;;23.65;10.43;;;;;;;;;;6144862;28;20039;-81
2021/08/31 05:06:32;;;;;;;18.67;10.07;;;;;;;;;;6128649;28;20050;-80
2021/08/31 05:09:33;;;;;;;22.05;10.98;;;;;;;;;;6128071;28;20051;-81
2021/08/31 05:12:35;;;;;;;19.10;10.32;;;;;;;;;;6129324;28;20051;-80
2021/08/31 05:15:37;;;;;;;17.52;9.40;;;;;;;;;;6108115;28;20127;-79
2021/08/31 05:18:39;;;;;;;16.83;8.75;;;;;;;;;;6144644;28;20166;-79
2021/08/31 05:21:42;;;;;;;12.77;7.40;;;;;;;;;;6130877;28;20046;-81
2021/08/31 05:24:46;;;;;;;16.17;8.25;;;;;;;;;;6152702;28;20047;-80
2021/08/31 05:27:47;;;;;;;13.77;8.18;;;;;;;;;;6137610;28;20467;-80
2021/08/31 05:30:49;;;;;;;15.00;8.07;;;;;;;;;;6150948;28;20058;-79
2021/08/31 05:33:51;;;;;;;15.38;8.65;;;;;;;;;;6129114;29;20058;-81
2021/08/31 05:36:53;;;;;;;12.35;7.57;;;;;;;;;;6146089;28;20035;-79
2021/08/31 05:39:54;;;;;;;10.65;7.45;;;;;;;;;;6143912;28;20043;-79
2021/08/31 05:42:56;;;;;;;13.13;7.95;;;;;;;;;;6143510;28;20050;-79
2021/08/31 05:45:57;;;;;;;11.65;7.75;;;;;;;;;;6144361;28;20476;-78
2021/08/31 05:48:59;;;;;;;12.98;8.15;;;;;;;;;;6169647;28;20137;-79
2021/08/31 05:52:01;;;;;;;14.02;9.15;;;;;;;;;;6180214;28;20055;-77
2021/08/31 05:55:03;;;;;;;18.58;9.88;;;;;;;;;;6120823;28;20052;-77
2021/08/31 05:58:05;;;;;;;18.58;10.63;;;;;;;;;;6121291;28;20051;-79
2021/08/31 06:01:06;;;;;;;10.02;7.20;;;;;;;;;;6167098;28;20051;-80
2021/08/31 06:04:11;;;;;;;8.98;6.63;;;;;;;;;;6153163;28;20047;-80
2021/08/31 06:07:12;;;;;;;11.40;7.22;;;;;;;;;;6167651;28;20043;-81
2021/08/31 06:10:15;;;;;;;11.90;7.85;;;;;;;;;;6152695;28;20050;-81
2021/08/31 06:13:16;;;;;;;30.52;17.40;;;;;;;;;;6136291;28;20054;-80
2021/08/31 06:16:18;;;;;;;21.15;12.77;;;;;;;;;;6145443;28;20057;-79
2021/08/31 06:19:20;;;;;;;14.40;8.63;;;;;;;;;;6143218;28;20043;-79
2021/08/31 06:22:21;;;;;;;13.13;8.15;;;;;;;;;;6146238;28;20043;-79
2021/08/31 06:25:23;;;;;;;12.18;7.53;;;;;;;;;;6163269;28;20061;-80
2021/08/31 06:28:25;;;;;;;10.52;7.80;;;;;;;;;;6146169;28;20125;-78
2021/08/31 06:31:27;;;;;;;13.65;8.30;;;;;;;;;;6159742;28;20043;-79
2021/08/31 06:34:29;;;;;;;13.85;8.35;;;;;;;;;;6144573;28;20054;-81
2021/08/31 06:37:30;;;;;;;12.13;8.35;;;;;;;;;;6145521;28;20051;-80
2021/08/31 06:40:32;;;;;;;12.02;7.90;;;;;;;;;;6160897;28;20043;-80
2021/08/31 06:43:34;;;;;;;14.00;8.48;;;;;;;;;;6161426;28;20047;-81
2021/08/31 06:46:35;;;;;;;10.63;7.88;;;;;;;;;;6169885;28;20050;-80
2021/08/31 06:49:44;;;;;;;10.82;7.10;;;;;;;;;;6167956;28;20113;-79
2021/08/31 06:52:47;;;;;;;14.07;8.93;;;;;;;;;;6168801;28;20484;-80
2021/08/31 06:55:48;;;;;;;11.93;8.77;;;;;;;;;;6168479;28;20110;-80
2021/08/31 06:58:50;;;;;;;15.70;9.65;;;;;;;;;;6164627;28;20053;-81
2021/08/31 07:01:51;;;;;;;14.20;8.63;;;;;;;;;;6161050;28;20043;-81
2021/08/31 07:04:53;;;;;;;14.07;9.52;;;;;;;;;;6127102;28;20071;-80
2021/08/31 07:07:55;;;;;;;15.93;9.80;;;;;;;;;;6159950;28;20047;-79
2021/08/31 07:10:57;;;;;;;15.85;9.27;;;;;;;;;;6127419;28;20051;-81
2021/08/31 07:13:58;;;;;;;15.20;9.30;;;;;;;;;;6160156;28;20055;-80
2021/08/31 07:17:00;;;;;;;14.65;8.15;;;;;;;;;;6146153;28;20055;-82
2021/08/31 07:20:03;;;;;;;13.43;8.27;;;;;;;;;;6156436;28;20496;-80
2021/08/31 07:23:06;;;;;;;12.73;8.20;;;;;;;;;;6164381;28;20054;-79
2021/08/31 07:26:14;;;;;;;14.38;7.95;;;;;;;;;;6166648;28;20508;-80
2021/08/31 07:29:16;;;;;;;13.80;8.68;;;;;;;;;;6144248;28;20424;-80
2021/08/31 07:32:18;;;;;;;12.25;7.28;;;;;;;;;;6166795;28;20049;-80
2021/08/31 07:35:20;;;;;;;13.20;7.53;;;;;;;;;;6184213;28;20050;-80
2021/08/31 07:38:21;;;;;;;11.27;7.93;;;;;;;;;;6165697;28;20130;-80
2021/08/31 07:41:23;;;;;;;12.68;8.52;;;;;;;;;;6142949;28;20043;-80
2021/08/31 07:44:25;;;;;;;11.75;7.57;;;;;;;;;;6158502;28;20039;-81
2021/08/31 07:47:26;;;;;;;9.65;7.10;;;;;;;;;;6175127;28;20166;-79
2021/08/31 07:50:35;;;;;;;11.77;7.78;;;;;;;;;;6167767;28;20081;-81
2021/08/31 07:53:37;;;;;;;11.70;7.35;;;;;;;;;;6149733;28;20043;-79
2021/08/31 07:56:40;;;;;;;9.87;7.00;;;;;;;;;;6159435;28;20055;-79
2021/08/31 07:59:41;;;;;;;11.38;7.18;;;;;;;;;;6157627;28;20049;-80
2021/08/31 08:02:44;;;;;;;10.68;7.32;;;;;;;;;;6142477;28;20055;-80
2021/08/31 08:05:45;;;;;;;16.77;8.02;;;;;;;;;;6143233;28;20043;-80
2021/08/31 08:08:47;;;;;;;14.60;7.28;;;;;;;;;;6158951;28;20727;-81
2021/08/31 08:11:49;;;;;;;10.90;7.38;;;;;;;;;;6144448;28;20475;-80
2021/08/31 08:14:50;;;;;;;11.68;6.82;;;;;;;;;;6144134;28;20047;-80
2021/08/31 08:17:52;;;;;;;9.98;7.35;;;;;;;;;;6142763;28;20047;-78
2021/08/31 08:20:54;;;;;;;11.70;7.50;;;;;;;;;;6159064;28;20637;-81
2021/08/31 08:23:56;;;;;;;11.68;7.10;;;;;;;;;;6142201;28;20438;-80
2021/08/31 08:26:59;;;;;;;11.65;8.18;;;;;;;;;;6158299;28;20047;-81
2021/08/31 08:30:01;;;;;;;14.65;8.60;;;;;;;;;;6144576;28;20053;-80
2021/08/31 08:33:03;;;;;;;13.65;7.88;;;;;;;;;;6158486;28;20062;-80
2021/08/31 08:36:06;;;;;;;10.38;7.90;;;;;;;;;;6158232;28;20055;-80
2021/08/31 08:39:08;;;;;;;12.70;7.97;;;;;;;;;;6144163;28;20043;-79
2021/08/31 08:42:11;;;;;;;11.25;7.55;;;;;;;;;;6126200;28;20035;-79
2021/08/31 08:45:13;;;;;;;9.75;7.30;;;;;;;;;;6143215;28;20058;-81
2021/08/31 08:48:21;;;;;;;10.43;7.78;;;;;;;;;;6180716;28;20043;-81
2021/08/31 08:51:23;;;;;;;11.85;7.28;;;;;;;;;;6183076;28;20054;-78
2021/08/31 08:54:26;;;;;;;11.93;8.10;;;;;;;;;;6154396;28;20054;-80
2021/08/31 08:57:29;;;;;;;11.63;7.90;;;;;;;;;;6158362;28;20504;-80
2021/08/31 09:00:49;;;;;;;13.95;7.63;;;;;;;;;;6143474;28;20040;-80
2021/08/31 09:03:55;;;;;;;12.15;7.97;;;;;;;;;;6142151;28;20134;-81
2021/08/31 09:06:57;;;;;;;11.52;8.18;;;;;;;;;;6144585;28;20047;-81
2021/08/31 09:10:20;;;;;;;8.95;7.10;;;;;;;;;;6143641;28;20123;-81
2021/08/31 09:13:24;;;;;;;9.93;7.40;;;;;;;;;;6147240;28;20050;-80
2021/08/31 09:16:30;;;;;;;12.63;8.10;;;;;;;;;;6145942;28;20051;-82
2021/08/31 09:19:34;;;;;;;10.35;7.85;;;;;;;;;;6147251;28;20302;-81
2021/08/31 09:22:36;;;;;;;10.45;7.50;;;;;;;;;;6148033;28;20051;-80
2021/08/31 09:25:42;;;;;;;10.57;7.20;;;;;;;;;;6147424;28;20099;-80
2021/08/31 09:28:45;;;;;;;11.98;7.78;;;;;;;;;;6163473;28;20057;-80
2021/08/31 09:31:56;;;;;;;10.25;8.07;;;;;;;;;;6147046;28;20106;-81
2021/08/31 09:34:58;;;;;;;10.57;7.47;;;;;;;;;;6148275;28;20057;-81
2021/08/31 09:38:02;;;;;;;10.63;8.13;;;;;;;;;;6149671;28;20046;-80
2021/08/31 09:41:03;;;;;;;10.23;7.55;;;;;;;;;;6131021;28;20214;-81
2021/08/31 09:44:22;;;;;;;11.43;8.13;;;;;;;;;;6130687;28;20507;-81
2021/08/31 09:47:32;;;;;;;10.13;7.65;;;;;;;;;;6161401;28;20185;-80
2021/08/31 09:50:40;;;;;;;10.70;7.68;;;;;;;;;;6173500;28;20316;-80
2021/08/31 09:53:42;;;;;;;12.00;7.60;;;;;;;;;;6145159;28;20132;-80
2021/08/31 09:56:43;;;;;;;12.90;7.90;;;;;;;;;;6153005;28;20057;-80
2021/08/31 10:00:15;;;;;;;10.52;7.43;;;;;;;;;;6142699;28;20059;-79
2021/08/31 10:03:17;;;;;;;11.05;7.75;;;;;;;;;;6166775;28;20046;-79
2021/08/31 10:06:18;;;;;;;10.43;7.20;;;;;;;;;;6164837;28;20174;-80
2021/08/31 10:09:20;;;;;;;10.00;7.35;;;;;;;;;;6144598;28;20054;-79
2021/08/31 10:12:23;;;;;;;9.25;6.97;;;;;;;;;;6143354;28;20070;-82
2021/08/31 10:15:25;;;;;;;10.00;7.05;;;;;;;;;;6143588;28;20043;-81
2021/08/31 10:18:28;;;;;;;9.80;6.73;;;;;;;;;;6143210;28;20106;-81
2021/08/31 10:21:30;;;;;;;11.30;6.80;;;;;;;;;;6162691;28;20149;-81
2021/08/31 10:24:32;;;;;;;9.75;6.75;;;;;;;;;;6158984;28;20047;-81
2021/08/31 10:27:39;;;;;;;10.48;6.78;;;;;;;;;;6146057;28;20051;-81
2021/08/31 10:30:46;;;;;;;9.20;6.68;;;;;;;;;;6160751;28;20047;-81
2021/08/31 10:33:48;;;;;;;8.27;6.75;;;;;;;;;;6144806;28;20119;-81
2021/08/31 10:37:03;;;;;;;7.78;6.20;;;;;;;;;;6145631;28;20043;-80
2021/08/31 10:40:05;;;;;;;8.38;6.05;;;;;;;;;;6143464;28;20155;-80
2021/08/31 10:43:11;;;;;;;7.37;5.50;;;;;;;;;;6159196;28;20059;-81
2021/08/31 10:46:13;;;;;;;7.05;5.88;;;;;;;;;;6150610;28;20125;-79
2021/08/31 10:49:14;;;;;;;7.22;5.80;;;;;;;;;;6167093;28;20045;-81
2021/08/31 10:52:16;;;;;;;7.05;5.80;;;;;;;;;;6160313;28;20039;-79
2021/08/31 10:55:23;;;;;;;8.20;5.80;;;;;;;;;;6159000;28;20040;-77
2021/08/31 10:58:37;;;;;;;7.93;5.38;;;;;;;;;;6141028;28;20039;-76
2021/08/31 11:01:41;;;;;;;7.55;5.40;;;;;;;;;;6138830;28;20050;-77
2021/08/31 11:04:43;;;;;;;6.70;4.93;;;;;;;;;;6139979;28;20078;-77
2021/08/31 11:07:45;;;;;;;6.03;5.10;;;;;;;;;;6156556;28;20050;-77
2021/08/31 11:10:47;;;;;;;6.70;5.13;;;;;;;;;;6140944;28;20051;-78
2021/08/31 11:13:54;;;;;;;7.43;5.75;;;;;;;;;;6142755;28;20107;-79
2021/08/31 11:16:55;;;;;;;6.45;5.07;;;;;;;;;;6145195;28;20042;-80
2021/08/31 11:20:18;;;;;;;6.50;4.78;;;;;;;;;;6145595;28;20590;-80
2021/08/31 11:23:21;;;;;;;;;;;;;;;;;;6141891;28;20057;-80
2021/08/31 11:26:24;;;;;;;5.80;4.82;;;;;;;;;;6145048;28;19926;-80
2021/08/31 11:29:26;;;;;;;7.03;5.28;;;;;;;;;;6158793;28;20492;-80
2021/08/31 11:32:28;;;;;;;6.88;5.20;;;;;;;;;;6144748;28;20043;-80
2021/08/31 11:35:29;;;;;;;7.05;4.97;;;;;;;;;;6142347;28;20039;-80
2021/08/31 11:38:37;;;;;;;6.47;4.47;;;;;;;;;;6158051;28;20043;-79
2021/08/31 11:41:41;;;;;;;5.63;4.78;;;;;;;;;;6145674;28;20047;-79
2021/08/31 11:44:56;;;;;;;6.00;5.10;;;;;;;;;;6158005;28;20049;-79
2021/08/31 11:47:57;;;;;;;7.45;5.07;;;;;;;;;;6164486;28;20054;-79
2021/08/31 11:50:59;;;;;;;5.90;4.75;;;;;;;;;;6169237;28;20042;-79
2021/08/31 11:54:07;;;;;;;9.30;5.20;;;;;;;;;;6143610;28;20043;-79
2021/08/31 11:57:10;;;;;;;6.80;4.80;;;;;;;;;;6144971;28;20070;-79
2021/08/31 12:00:13;;;;;;;;;;;;;;;;;;6144181;28;20036;-80
2021/08/31 12:03:21;;;;;;;7.55;5.20;;;;;;;;;;6158490;28;19923;-80
2021/08/31 12:06:24;;;;;;;5.43;4.82;;;;;;;;;;6159699;28;20058;-79
2021/08/31 12:09:26;;;;;;;6.47;4.90;;;;;;;;;;6158141;28;20053;-79
2021/08/31 12:12:28;;;;;;;5.43;4.35;;;;;;;;;;6142528;28;21010;-79
2021/08/31 12:15:31;;;;;;;6.45;4.47;;;;;;;;;;6142559;28;20492;-78
2021/08/31 12:18:33;;;;;;;6.15;5.53;;;;;;;;;;6142457;28;20043;-79
2021/08/31 12:21:35;;;;;;;7.03;4.63;;;;;;;;;;6143097;28;20772;-79
2021/08/31 12:24:42;;;;;;;5.60;4.78;;;;;;;;;;6142783;28;20054;-79
2021/08/31 12:27:49;;;;;;;7.30;5.43;;;;;;;;;;6157205;28;20405;-80
2021/08/31 12:30:53;;;;;;;8.00;5.40;;;;;;;;;;6140506;28;20053;-79
2021/08/31 12:33:55;;;;;;;8.27;5.60;;;;;;;;;;6154844;28;20054;-81
2021/08/31 12:36:57;;;;;;;6.63;4.97;;;;;;;;;;6142522;28;20163;-79
2021/08/31 12:40:18;;;;;;;9.02;5.30;;;;;;;;;;6156767;28;20061;-80
2021/08/31 12:43:28;;;;;;;6.15;4.95;;;;;;;;;;6123155;28;20051;-81
2021/08/31 12:46:32;;;;;;;7.25;4.53;;;;;;;;;;6151368;28;20049;-79
2021/08/31 12:49:34;;;;;;;6.25;4.13;;;;;;;;;;6172870;28;20038;-79
2021/08/31 12:52:36;;;;;;;5.82;4.82;;;;;;;;;;6172994;28;20523;-80
2021/08/31 12:55:38;;;;;;;9.05;5.47;;;;;;;;;;6147269;28;20043;-80
2021/08/31 12:58:43;;;;;;;7.88;4.95;;;;;;;;;;6149068;28;20039;-79
2021/08/31 13:01:52;;;;;;;6.82;5.03;;;;;;;;;;6148428;28;20046;-80
2021/08/31 13:05:11;;;;;;;7.68;5.20;;;;;;;;;;6146029;28;20054;-81
2021/08/31 13:08:12;;;;;;;5.55;4.50;;;;;;;;;;6149260;28;20048;-81
2021/08/31 13:11:14;;;;;;;5.40;4.20;;;;;;;;;;6148849;28;20050;-80
2021/08/31 13:14:20;;;;;;;4.60;4.20;;;;;;;;;;6148279;28;20045;-80
2021/08/31 13:17:23;;;;;;;4.50;3.90;;;;;;;;;;6164944;28;20828;-79
2021/08/31 13:20:24;;;;;;;4.82;3.88;;;;;;;;;;6149140;28;20474;-79
2021/08/31 13:23:26;;;;;;;6.95;4.28;;;;;;;;;;6148080;28;20491;-80
2021/08/31 13:26:29;;;;;;;5.47;4.87;;;;;;;;;;6148305;28;20121;-80
2021/08/31 13:29:30;;;;;;;7.50;4.50;;;;;;;;;;6147672;28;20439;-80
2021/08/31 13:32:32;;;;;;;5.07;4.13;;;;;;;;;;6145627;28;20047;-80
2021/08/31 13:35:34;;;;;;;6.13;4.43;;;;;;;;;;6146877;28;20998;-81
2021/08/31 13:38:35;;;;;;;5.43;4.23;;;;;;;;;;6146898;28;20050;-80
2021/08/31 13:41:37;;;;;;;5.93;4.53;;;;;;;;;;6151475;28;20055;-79
2021/08/31 13:44:39;;;;;;;8.27;5.20;;;;;;;;;;6148299;28;20126;-81
2021/08/31 13:47:40;;;;;;;7.95;4.82;;;;;;;;;;6179735;28;20057;-80
2021/08/31 13:50:42;;;;;;;7.43;5.00;;;;;;;;;;6171193;28;20065;-80
2021/08/31 13:53:45;;;;;;;5.93;4.15;;;;;;;;;;6160271;28;20043;-81
2021/08/31 13:56:46;;;;;;;7.22;4.40;;;;;;;;;;6144880;28;20054;-79
2021/08/31 13:59:48;;;;;;;6.13;4.55;;;;;;;;;;6148205;28;20168;-81
2021/08/31 14:02:49;;;;;;;7.15;4.60;;;;;;;;;;6183249;28;20058;-81
2021/08/31 14:05:51;;;;;;;4.70;4.20;;;;;;;;;;6169062;28;20050;-80
2021/08/31 14:08:53;;;;;;;6.80;4.17;;;;;;;;;;6169737;28;20050;-80
2021/08/31 14:11:55;;;;;;;5.32;3.60;;;;;;;;;;6185177;28;20446;-80
2021/08/31 14:14:56;;;;;;;4.82;3.45;;;;;;;;;;6156972;28;20046;-80
2021/08/31 14:17:58;;;;;;;4.15;3.20;;;;;;;;;;6162886;28;20039;-81
2021/08/31 14:20:59;;;;;;;6.13;3.58;;;;;;;;;;6169902;28;20050;-81
2021/08/31 14:24:01;;;;;;;5.00;3.33;;;;;;;;;;6164999;28;20050;-82
2021/08/31 14:27:03;;;;;;;6.53;3.37;;;;;;;;;;6172341;28;20056;-81
2021/08/31 14:30:05;;;;;;;4.25;3.47;;;;;;;;;;6156116;28;20050;-81
2021/08/31 14:33:07;;;;;;;5.50;3.65;;;;;;;;;;6164002;28;20530;-80
2021/08/31 14:36:09;;;;;;;4.40;3.92;;;;;;;;;;6170998;28;20053;-80
2021/08/31 14:39:10;;;;;;;6.00;3.63;;;;;;;;;;6163941;28;20684;-79
2021/08/31 14:42:12;;;;;;;5.70;3.95;;;;;;;;;;6184133;28;20042;-81
2021/08/31 14:45:14;;;;;;;4.00;3.42;;;;;;;;;;6170043;28;20046;-81
2021/08/31 14:48:18;;;;;;;4.73;3.63;;;;;;;;;;6164919;28;20053;-80
2021/08/31 14:51:20;;;;;;;4.30;3.90;;;;;;;;;;6179810;28;20035;-81
2021/08/31 14:54:21;;;;;;;5.50;3.90;;;;;;;;;;6159600;28;20534;-80
2021/08/31 14:57:23;;;;;;;4.63;3.60;;;;;;;;;;6168974;28;20050;-81
2021/08/31 15:00:25;;;;;;;4.50;3.60;;;;;;;;;;6166361;28;20057;-80
2021/08/31 15:03:26;;;;;;;5.80;3.75;;;;;;;;;;6167870;28;20447;-79
2021/08/31 15:06:28;;;;;;;4.97;3.33;;;;;;;;;;6165672;28;20459;-79
2021/08/31 15:09:30;;;;;;;6.45;3.53;;;;;;;;;;6158878;28;20057;-80
2021/08/31 15:12:31;;;;;;;4.22;3.20;;;;;;;;;;6164209;28;20105;-80
2021/08/31 15:15:33;;;;;;;4.57;3.67;;;;;;;;;;6163294;28;20560;-80
2021/08/31 15:18:35;;;;;;;3.90;3.25;;;;;;;;;;6162886;28;20050;-79
2021/08/31 15:21:37;;;;;;;5.20;3.40;;;;;;;;;;6164207;28;20050;-80
2021/08/31 15:24:39;;;;;;;4.88;3.17;;;;;;;;;;6126174;28;20126;-78
2021/08/31 15:27:41;;;;;;;4.20;3.22;;;;;;;;;;6147044;28;20115;-81
2021/08/31 15:30:42;;;;;;;4.13;3.40;;;;;;;;;;6163949;28;20137;-80
2021/08/31 15:33:44;;;;;;;5.28;3.35;;;;;;;;;;6173365;28;20042;-80
2021/08/31 15:36:47;;;;;;;4.32;3.20;;;;;;;;;;6158741;28;20667;-80
2021/08/31 15:39:49;;;;;;;5.05;3.70;;;;;;;;;;6148510;28;20126;-80
2021/08/31 15:42:51;;;;;;;6.25;4.05;;;;;;;;;;6164091;28;20134;-78
2021/08/31 15:45:52;;;;;;;4.55;3.65;;;;;;;;;;6146780;28;20043;-80
2021/08/31 15:48:54;;;;;;;4.57;3.85;;;;;;;;;;6148910;28;20050;-80
2021/08/31 15:51:56;;;;;;;5.68;3.53;;;;;;;;;;6159513;28;20520;-81
2021/08/31 15:54:58;;;;;;;3.83;3.22;;;;;;;;;;6158236;28;20049;-79
2021/08/31 15:58:00;;;;;;;;;;;;;;;;;;6155898;28;20042;-79
2021/08/31 16:01:02;;;;;;;3.88;3.13;;;;;;;;;;6124921;28;20029;-79
2021/08/31 16:04:04;;;;;;;5.38;4.05;;;;;;;;;;6139784;28;20064;-80
2021/08/31 16:07:06;;;;;;;4.38;3.50;;;;;;;;;;6158150;28;20162;-78
2021/08/31 16:10:08;;;;;;;4.53;3.55;;;;;;;;;;6127427;28;20058;-79
2021/08/31 16:13:10;;;;;;;4.85;3.40;;;;;;;;;;6153163;28;20138;-80
2021/08/31 16:16:12;;;;;;;4.47;3.75;;;;;;;;;;6163443;28;20062;-81
2021/08/31 16:19:14;;;;;;;4.32;3.70;;;;;;;;;;6160957;28;20043;-80
2021/08/31 16:22:16;;;;;;;4.70;3.72;;;;;;;;;;6183709;28;20158;-80
2021/08/31 16:25:18;;;;;;;4.82;3.83;;;;;;;;;;6170044;28;20050;-81
2021/08/31 16:28:20;;;;;;;6.20;3.72;;;;;;;;;;6171817;28;20512;-80
2021/08/31 16:31:22;;;;;;;5.28;3.63;;;;;;;;;;6147656;28;20125;-80
2021/08/31 16:34:24;;;;;;;5.03;3.55;;;;;;;;;;6169660;28;20189;-80
2021/08/31 16:37:27;;;;;;;5.95;3.63;;;;;;;;;;6195879;28;20046;-80
2021/08/31 16:40:29;;;;;;;5.30;3.80;;;;;;;;;;6169295;28;20047;-80
2021/08/31 16:43:31;;;;;;;4.18;3.58;;;;;;;;;;6173722;28;20050;-80
2021/08/31 16:46:33;;;;;;;4.20;3.78;;;;;;;;;;6148315;28;20106;-80
2021/08/31 16:49:35;;;;;;;;;;;;;;;;;;6169524;28;20043;-81
2021/08/31 16:52:37;;;;;;;5.93;3.47;;;;;;;;;;6149878;28;19925;-81
2021/08/31 16:55:50;;;;;;;4.85;3.72;;;;;;;;;;6160248;28;20073;-79
2021/08/31 16:58:52;;;;;;;6.50;3.73;;;;;;;;;;6166800;28;20051;-79
2021/08/31 17:01:56;;;;;;;6.80;3.63;;;;;;;;;;6167251;28;20047;-80
2021/08/31 17:04:58;;;;;;;5.43;3.75;;;;;;;;;;6152144;28;20137;-80
2021/08/31 17:08:00;;;;;;;5.15;3.33;;;;;;;;;;6145209;28;20042;-80
2021/08/31 17:11:02;;;;;;;5.00;3.83;;;;;;;;;;6169943;28;20053;-80
2021/08/31 17:14:04;;;;;;;4.83;4.00;;;;;;;;;;6173644;28;20047;-80
2021/08/31 17:17:05;;;;;;;5.90;4.13;;;;;;;;;;6168726;28;20051;-80
2021/08/31 17:20:09;;;;;;;5.93;4.20;;;;;;;;;;6148090;28;20057;-80
2021/08/31 17:23:11;;;;;;;6.90;3.97;;;;;;;;;;6168374;28;20466;-80
2021/08/31 17:26:12;;;;;;;5.03;4.00;;;;;;;;;;6160176;28;20049;-81
2021/08/31 17:29:14;;;;;;;4.60;3.42;;;;;;;;;;6163263;28;20053;-80
2021/08/31 17:32:17;;;;;;;6.38;4.22;;;;;;;;;;6155757;28;20055;-80
2021/08/31 17:35:18;;;;;;;7.72;4.43;;;;;;;;;;6148474;28;20047;-80
2021/08/31 17:38:21;;;;;;;6.72;4.15;;;;;;;;;;6180640;28;20053;-81
2021/08/31 17:41:23;;;;;;;7.15;4.05;;;;;;;;;;6170482;28;20070;-82
2021/08/31 17:44:25;;;;;;;7.38;3.92;;;;;;;;;;6174451;28;20066;-81
2021/08/31 17:47:27;;;;;;;7.85;4.20;;;;;;;;;;6166421;28;20182;-81
2021/08/31 17:50:28;;;;;;;5.50;4.38;;;;;;;;;;6160600;28;20039;-81
2021/08/31 17:53:32;;;;;;;5.88;4.18;;;;;;;;;;6178217;28;20045;-81
2021/08/31 17:56:34;;;;;;;6.20;4.40;;;;;;;;;;6182736;28;20122;-81
2021/08/31 17:59:36;;;;;;;5.53;4.20;;;;;;;;;;6175429;28;20043;-80
2021/08/31 18:02:38;;;;;;;6.53;4.20;;;;;;;;;;6151831;28;20053;-81
2021/08/31 18:05:40;;;;;;;5.27;4.07;;;;;;;;;;6173525;28;20742;-80
2021/08/31 18:08:42;;;;;;;6.90;4.20;;;;;;;;;;6177743;28;20495;-79
2021/08/31 18:11:44;;;;;;;7.22;4.18;;;;;;;;;;6158343;28;20078;-80